sensor_id;sensor_type;location;lat;lon;timestamp;pressure;altitude;pressure_sealevel;temperature;humidity
37132;BME280;23035;50.032;21.978;2023-05-23T00:01:42;66343.13;;;11.10;100.00
37132;BME280;23035;50.032;21.978;2023-05-23T00:06:47;66365.22;;;11.34;100.00
37132;BME280;23035;50.032;21.978;2023-05-23T00:11:52;66392.50;;;11.57;100.00
37132;BME280;23035;50.032;21.978;2023-05-23T00:16:57;66402.34;;;11.71;100.00
37132;BME280;23035;50.032;21.978;2023-05-23T00:22:02;66362.59;;;11.34;100.00
37132;BME280;23035;50.032;21.978;2023-05-23T00:27:07;66349.63;;;11.19;100.00
37132;BME280;23035;50.032;21.978;2023-05-23T00:32:12;66374.34;;;11.42;100.00
37132;BME280;23035;50.032;21.978;2023-05-23T00:37:16;66324.44;;;10.95;100.00
37132;BME280;23035;50.032;21.978;2023-05-23T00:42:20;66333.09;;;11.06;100.00
37132;BME280;23035;50.032;21.978;2023-05-23T00:47:26;66325.41;;;10.94;100.00
37132;BME280;23035;50.032;21.978;2023-05-23T00:52:30;66337.13;;;11.02;100.00
37132;BME280;23035;50.032;21.978;2023-05-23T00:57:34;66286.34;;;10.59;100.00
37132;BME280;23035;50.032;21.978;2023-05-23T01:02:44;66246.63;;;10.21;100.00
37132;BME280;23035;50.032;21.978;2023-05-23T01:07:50;66198.47;;;9.78;100.00
37132;BME280;23035;50.032;21.978;2023-05-23T01:13:06;66226.09;;;9.97;100.00
37132;BME280;23035;50.032;21.978;2023-05-23T01:18:16;66205.34;;;9.82;100.00
37132;BME280;23035;50.032;21.978;2023-05-23T01:23:57;66084.28;;;8.67;100.00
37132;BME280;23035;50.032;21.978;2023-05-23T01:29:10;66060.88;;;8.50;100.00
37132;BME280;23035;50.032;21.978;2023-05-23T01:34:18;66029.00;;;8.12;100.00
37132;BME280;23035;50.032;21.978;2023-05-23T01:39:22;66108.91;;;8.90;100.00
37132;BME280;23035;50.032;21.978;2023-05-23T01:44:29;66108.91;;;8.90;100.00
37132;BME280;23035;50.032;21.978;2023-05-23T01:49:34;66167.38;;;9.48;100.00
37132;BME280;23035;50.032;21.978;2023-05-23T01:54:39;66070.78;;;8.52;100.00
37132;BME280;23035;50.032;21.978;2023-05-23T01:59:46;66093.28;;;8.73;100.00
37132;BME280;23035;50.032;21.978;2023-05-23T02:04:50;66191.41;;;9.69;100.00
37132;BME280;23035;50.032;21.978;2023-05-23T02:09:55;66136.31;;;9.19;100.00
37132;BME280;23035;50.032;21.978;2023-05-23T02:15:01;66230.56;;;10.06;100.00
37132;BME280;23035;50.032;21.978;2023-05-23T02:20:06;66122.75;;;9.01;100.00
37132;BME280;23035;50.032;21.978;2023-05-23T02:25:10;66054.72;;;8.37;100.00
37132;BME280;23035;50.032;21.978;2023-05-23T02:30:15;66087.47;;;8.70;100.00
37132;BME280;23035;50.032;21.978;2023-05-23T02:35:19;66096.13;;;8.81;100.00
37132;BME280;23035;50.032;21.978;2023-05-23T02:40:24;66061.16;;;8.43;100.00
37132;BME280;23035;50.032;21.978;2023-05-23T02:45:31;66029.72;;;8.18;100.00
37132;BME280;23035;50.032;21.978;2023-05-23T02:50:35;66009.28;;;7.96;100.00
37132;BME280;23035;50.032;21.978;2023-05-23T02:55:39;66047.22;;;8.29;100.00
37132;BME280;23035;50.032;21.978;2023-05-23T03:00:46;66007.50;;;7.89;100.00
37132;BME280;23035;50.032;21.978;2023-05-23T03:05:51;66165.59;;;9.42;100.00
37132;BME280;23035;50.032;21.978;2023-05-23T03:10:58;66158.28;;;9.40;100.00
37132;BME280;23035;50.032;21.978;2023-05-23T03:16:06;66231.09;;;10.06;100.00
37132;BME280;23035;50.032;21.978;2023-05-23T03:21:13;66160.34;;;9.39;100.00
37132;BME280;23035;50.032;21.978;2023-05-23T03:26:19;66149.16;;;9.31;100.00
37132;BME280;23035;50.032;21.978;2023-05-23T03:31:28;66248.69;;;10.21;100.00
37132;BME280;23035;50.032;21.978;2023-05-23T03:36:36;66340.63;;;11.13;100.00
37132;BME280;23035;50.032;21.978;2023-05-23T03:41:44;66375.41;;;11.43;100.00
37132;BME280;23035;50.032;21.978;2023-05-23T03:46:53;66437.63;;;12.00;100.00
37132;BME280;23035;50.032;21.978;2023-05-23T03:52:00;66425.44;;;11.93;100.00
37132;BME280;23035;50.032;21.978;2023-05-23T03:57:08;66476.44;;;12.42;100.00
37132;BME280;23035;50.032;21.978;2023-05-23T04:02:15;66517.09;;;12.75;100.00
37132;BME280;23035;50.032;21.978;2023-05-23T04:07:22;66541.84;;;12.99;100.00
37132;BME280;23035;50.032;21.978;2023-05-23T04:12:30;66490.25;;;12.50;100.00
37132;BME280;23035;50.032;21.978;2023-05-23T04:17:42;66535.44;;;12.95;100.00
37132;BME280;23035;50.032;21.978;2023-05-23T04:22:50;66586.53;;;13.43;100.00
37132;BME280;23035;50.032;21.978;2023-05-23T04:27:57;66631.25;;;13.88;100.00
37132;BME280;23035;50.032;21.978;2023-05-23T04:33:06;66604.19;;;13.58;100.00
37132;BME280;23035;50.032;21.978;2023-05-23T04:38:16;66652.03;;;14.03;100.00
37132;BME280;23035;50.032;21.978;2023-05-23T04:43:23;66702.69;;;14.53;100.00
37132;BME280;23035;50.032;21.978;2023-05-23T04:48:40;66699.47;;;14.50;100.00
37132;BME280;23035;50.032;21.978;2023-05-23T04:53:49;66704.88;;;14.55;100.00
37132;BME280;23035;50.032;21.978;2023-05-23T04:58:58;66711.25;;;14.59;100.00
37132;BME280;23035;50.032;21.978;2023-05-23T05:04:07;66793.13;;;15.39;100.00
37132;BME280;23035;50.032;21.978;2023-05-23T05:09:14;66822.28;;;15.69;99.00
37132;BME280;23035;50.032;21.978;2023-05-23T05:14:22;66795.72;;;15.39;100.00
37132;BME280;23035;50.032;21.978;2023-05-23T05:19:28;66834.66;;;15.81;100.00
37132;BME280;23035;50.032;21.978;2023-05-23T05:24:34;66947.19;;;16.84;89.43
37132;BME280;23035;50.032;21.978;2023-05-23T05:29:41;66945.44;;;16.78;91.08
37132;BME280;23035;50.032;21.978;2023-05-23T05:34:50;67009.19;;;17.43;84.29
37132;BME280;23035;50.032;21.978;2023-05-23T05:39:58;66957.97;;;16.95;87.75
37132;BME280;23035;50.032;21.978;2023-05-23T05:45:13;67015.19;;;17.51;85.84
37132;BME280;23035;50.032;21.978;2023-05-23T05:50:22;67014.56;;;17.48;83.57
37132;BME280;23035;50.032;21.978;2023-05-23T05:55:30;66950.50;;;16.90;87.26
37132;BME280;23035;50.032;21.978;2023-05-23T06:00:38;67001.03;;;17.33;84.11
37132;BME280;23035;50.032;21.978;2023-05-23T06:05:47;67038.41;;;17.73;83.21
37132;BME280;23035;50.032;21.978;2023-05-23T06:10:51;67061.03;;;17.94;82.24
37132;BME280;23035;50.032;21.978;2023-05-23T06:15:57;67107.34;;;18.35;82.43
37132;BME280;23035;50.032;21.978;2023-05-23T06:21:04;67218.56;;;19.40;72.43
37132;BME280;23035;50.032;21.978;2023-05-23T06:26:11;67132.78;;;18.62;80.68
37132;BME280;23035;50.032;21.978;2023-05-23T06:31:17;67072.84;;;18.03;86.05
37132;BME280;23035;50.032;21.978;2023-05-23T06:36:22;67108.97;;;18.37;85.19
37132;BME280;23035;50.032;21.978;2023-05-23T06:41:27;67175.38;;;19.00;81.73
37132;BME280;23035;50.032;21.978;2023-05-23T06:46:33;67295.78;;;20.13;74.12
37132;BME280;23035;50.032;21.978;2023-05-23T06:51:44;67156.59;;;18.87;76.76
37132;BME280;23035;50.032;21.978;2023-05-23T06:56:49;67164.50;;;18.87;79.54
37132;BME280;23035;50.032;21.978;2023-05-23T07:01:56;67207.69;;;19.28;78.61
37132;BME280;23035;50.032;21.978;2023-05-23T07:07:03;67204.09;;;19.32;78.53
37132;BME280;23035;50.032;21.978;2023-05-23T07:12:09;67254.88;;;19.80;77.47
37132;BME280;23035;50.032;21.978;2023-05-23T07:17:19;67277.91;;;19.94;74.98
37132;BME280;23035;50.032;21.978;2023-05-23T07:22:28;67318.47;;;20.34;70.95
37132;BME280;23035;50.032;21.978;2023-05-23T07:27:35;67336.38;;;20.54;74.46
37132;BME280;23035;50.032;21.978;2023-05-23T07:32:42;67341.66;;;20.54;73.84
37132;BME280;23035;50.032;21.978;2023-05-23T07:37:52;67331.47;;;20.47;73.57
37132;BME280;23035;50.032;21.978;2023-05-23T07:42:59;67390.31;;;21.00;74.29
37132;BME280;23035;50.032;21.978;2023-05-23T07:48:04;67373.06;;;20.86;71.52
37132;BME280;23035;50.032;21.978;2023-05-23T07:53:11;67440.66;;;21.50;69.33
37132;BME280;23035;50.032;21.978;2023-05-23T07:58:17;67416.41;;;21.29;69.85
37132;BME280;23035;50.032;21.978;2023-05-23T08:03:23;67458.50;;;21.66;68.19
37132;BME280;23035;50.032;21.978;2023-05-23T08:08:40;67437.97;;;21.47;64.68
37132;BME280;23035;50.032;21.978;2023-05-23T08:13:48;67464.97;;;21.72;66.12
37132;BME280;23035;50.032;21.978;2023-05-23T08:19:21;67473.03;;;21.77;59.42
37132;BME280;23035;50.032;21.978;2023-05-23T08:24:29;67539.59;;;22.40;54.97
37132;BME280;23035;50.032;21.978;2023-05-23T08:29:37;67581.94;;;22.85;57.07
37132;BME280;23035;50.032;21.978;2023-05-23T08:34:42;67493.16;;;22.01;57.52
37132;BME280;23035;50.032;21.978;2023-05-23T08:39:51;67502.38;;;22.10;57.24
37132;BME280;23035;50.032;21.978;2023-05-23T08:45:17;67532.66;;;22.39;57.19
37132;BME280;23035;50.032;21.978;2023-05-23T08:50:23;67585.66;;;22.86;53.25
37132;BME280;23035;50.032;21.978;2023-05-23T08:55:32;67587.28;;;22.87;52.19
37132;BME280;23035;50.032;21.978;2023-05-23T09:00:38;67574.81;;;22.76;53.98
37132;BME280;23035;50.032;21.978;2023-05-23T09:05:44;67550.41;;;22.50;53.70
37132;BME280;23035;50.032;21.978;2023-05-23T09:10:49;67571.56;;;22.73;53.33
37132;BME280;23035;50.032;21.978;2023-05-23T09:15:56;67572.16;;;22.76;53.63
37132;BME280;23035;50.032;21.978;2023-05-23T09:21:05;67672.28;;;23.67;50.84
37132;BME280;23035;50.032;21.978;2023-05-23T09:26:25;67608.97;;;23.10;52.13
37132;BME280;23035;50.032;21.978;2023-05-23T09:31:31;67678.78;;;23.73;51.92
37132;BME280;23035;50.032;21.978;2023-05-23T09:36:39;67650.00;;;23.44;49.96
37132;BME280;23035;50.032;21.978;2023-05-23T09:41:49;67653.38;;;23.52;50.84
37132;BME280;23035;50.032;21.978;2023-05-23T09:46:55;67703.09;;;23.94;48.42
37132;BME280;23035;50.032;21.978;2023-05-23T09:52:01;67646.88;;;23.46;49.34
37132;BME280;23035;50.032;21.978;2023-05-23T09:57:10;67718.84;;;24.11;45.69
37132;BME280;23035;50.032;21.978;2023-05-23T10:02:29;67736.78;;;24.30;47.01
37132;BME280;23035;50.032;21.978;2023-05-23T10:07:43;67742.25;;;24.38;44.91
37132;BME280;23035;50.032;21.978;2023-05-23T10:12:51;67773.03;;;24.62;40.00
37132;BME280;23035;50.032;21.978;2023-05-23T10:18:05;67848.38;;;25.33;40.27
37132;BME280;23035;50.032;21.978;2023-05-23T10:23:13;67739.50;;;24.33;43.87
37132;BME280;23035;50.032;21.978;2023-05-23T10:28:21;67780.63;;;24.69;43.25
37132;BME280;23035;50.032;21.978;2023-05-23T10:33:26;67783.97;;;24.77;43.31
37132;BME280;23035;50.032;21.978;2023-05-23T10:38:37;67976.44;;;26.55;38.52
37132;BME280;23035;50.032;21.978;2023-05-23T10:43:49;67899.50;;;25.88;38.14
37132;BME280;23035;50.032;21.978;2023-05-23T10:48:55;67959.50;;;26.35;38.82
37132;BME280;23035;50.032;21.978;2023-05-23T10:54:00;67919.56;;;26.07;40.66
37132;BME280;23035;50.032;21.978;2023-05-23T10:59:18;67955.81;;;26.36;38.11
37132;BME280;23035;50.032;21.978;2023-05-23T11:04:25;67860.94;;;25.50;42.53
37132;BME280;23035;50.032;21.978;2023-05-23T11:09:32;67859.25;;;25.45;41.45
37132;BME280;23035;50.032;21.978;2023-05-23T11:14:54;67944.84;;;26.21;42.05
37132;BME280;23035;50.032;21.978;2023-05-23T11:20:05;67915.06;;;25.95;40.32
37132;BME280;23035;50.032;21.978;2023-05-23T11:25:12;68143.66;;;28.15;36.97
37132;BME280;23035;50.032;21.978;2023-05-23T11:30:22;68202.31;;;28.70;36.03
37132;BME280;23035;50.032;21.978;2023-05-23T11:35:29;68259.97;;;29.26;34.96
37132;BME280;23035;50.032;21.978;2023-05-23T11:40:36;68206.56;;;28.69;36.14
37132;BME280;23035;50.032;21.978;2023-05-23T11:45:42;68320.72;;;29.76;34.69
37132;BME280;23035;50.032;21.978;2023-05-23T11:50:51;68280.03;;;29.42;34.87
37132;BME280;23035;50.032;21.978;2023-05-23T11:55:57;68256.09;;;29.20;34.83
37132;BME280;23035;50.032;21.978;2023-05-23T12:01:06;68276.72;;;29.37;35.09
37132;BME280;23035;50.032;21.978;2023-05-23T12:06:14;68462.16;;;31.10;33.24
37132;BME280;23035;50.032;21.978;2023-05-23T12:11:20;68391.97;;;30.45;33.52
37132;BME280;23035;50.032;21.978;2023-05-23T12:16:29;68267.00;;;29.30;34.61
37132;BME280;23035;50.032;21.978;2023-05-23T12:21:43;68334.97;;;29.96;34.59
37132;BME280;23035;50.032;21.978;2023-05-23T12:26:51;68450.75;;;31.02;33.46
37132;BME280;23035;50.032;21.978;2023-05-23T12:31:59;68341.41;;;29.97;34.25
37132;BME280;23035;50.032;21.978;2023-05-23T12:37:05;68277.31;;;29.40;34.56
37132;BME280;23035;50.032;21.978;2023-05-23T12:42:15;68368.63;;;30.25;34.25
37132;BME280;23035;50.032;21.978;2023-05-23T12:47:24;68201.06;;;28.58;35.89
37132;BME280;23035;50.032;21.978;2023-05-23T12:52:31;68128.91;;;27.96;37.50
37132;BME280;23035;50.032;21.978;2023-05-23T12:57:40;68023.09;;;26.99;39.32
37132;BME280;23035;50.032;21.978;2023-05-23T13:02:47;67968.75;;;26.43;40.35
37132;BME280;23035;50.032;21.978;2023-05-23T13:07:54;68049.19;;;27.26;39.14
37132;BME280;23035;50.032;21.978;2023-05-23T13:13:02;68277.75;;;29.35;36.19
37132;BME280;23035;50.032;21.978;2023-05-23T13:18:09;68297.94;;;29.57;35.06
37132;BME280;23035;50.032;21.978;2023-05-23T13:23:14;68287.03;;;29.47;34.92
37132;BME280;23035;50.032;21.978;2023-05-23T13:28:21;68130.63;;;28.03;37.13
37132;BME280;23035;50.032;21.978;2023-05-23T13:33:30;67994.88;;;26.73;39.20
37132;BME280;23035;50.032;21.978;2023-05-23T13:38:36;68227.78;;;28.89;36.25
37132;BME280;23035;50.032;21.978;2023-05-23T13:43:42;68221.84;;;28.85;36.34
37132;BME280;23035;50.032;21.978;2023-05-23T13:48:49;68152.84;;;28.21;37.18
37132;BME280;23035;50.032;21.978;2023-05-23T13:53:53;68171.78;;;28.34;35.81
37132;BME280;23035;50.032;21.978;2023-05-23T13:58:58;68262.63;;;29.26;34.96
37132;BME280;23035;50.032;21.978;2023-05-23T14:04:04;68170.19;;;28.35;36.34
37132;BME280;23035;50.032;21.978;2023-05-23T14:09:09;68074.06;;;27.44;37.67
37132;BME280;23035;50.032;21.978;2023-05-23T14:14:15;68187.09;;;28.53;36.88
37132;BME280;23035;50.032;21.978;2023-05-23T14:19:20;68252.78;;;29.12;34.96
37132;BME280;23035;50.032;21.978;2023-05-23T14:24:25;68205.53;;;28.70;35.23
37132;BME280;23035;50.032;21.978;2023-05-23T14:29:29;68176.72;;;28.41;35.99
37132;BME280;23035;50.032;21.978;2023-05-23T14:34:37;68211.41;;;28.71;36.07
37132;BME280;23035;50.032;21.978;2023-05-23T14:39:43;68047.41;;;27.14;37.50
37132;BME280;23035;50.032;21.978;2023-05-23T14:44:47;67928.69;;;26.11;41.29
37132;BME280;23035;50.032;21.978;2023-05-23T14:49:53;67972.09;;;26.51;40.03
37132;BME280;23035;50.032;21.978;2023-05-23T14:54:57;67943.78;;;26.20;40.26
37132;BME280;23035;50.032;21.978;2023-05-23T15:00:05;67971.50;;;26.48;39.77
37132;BME280;23035;50.032;21.978;2023-05-23T15:05:13;67937.81;;;26.14;40.06
37132;BME280;23035;50.032;21.978;2023-05-23T15:10:20;67931.47;;;26.16;40.77
37132;BME280;23035;50.032;21.978;2023-05-23T15:15:27;67965.50;;;26.40;38.80
37132;BME280;23035;50.032;21.978;2023-05-23T15:20:41;68009.00;;;26.86;38.55
37132;BME280;23035;50.032;21.978;2023-05-23T15:25:47;67987.28;;;26.66;39.08
37132;BME280;23035;50.032;21.978;2023-05-23T15:30:52;67992.66;;;26.68;39.12
37132;BME280;23035;50.032;21.978;2023-05-23T15:36:01;67958.00;;;26.38;39.87
37132;BME280;23035;50.032;21.978;2023-05-23T15:41:09;67877.69;;;25.63;42.77
37132;BME280;23035;50.032;21.978;2023-05-23T15:46:16;67804.56;;;24.97;43.44
37132;BME280;23035;50.032;21.978;2023-05-23T15:51:24;67861.34;;;25.42;42.35
37132;BME280;23035;50.032;21.978;2023-05-23T15:56:30;67820.25;;;25.09;41.58
37132;BME280;23035;50.032;21.978;2023-05-23T16:01:37;67819.72;;;25.08;41.87
37132;BME280;23035;50.032;21.978;2023-05-23T16:06:47;67831.53;;;25.14;42.03
37132;BME280;23035;50.032;21.978;2023-05-23T16:11:55;67752.34;;;24.38;44.56
37132;BME280;23035;50.032;21.978;2023-05-23T16:17:01;67751.38;;;24.42;43.42
37132;BME280;23035;50.032;21.978;2023-05-23T16:22:09;67754.53;;;24.40;43.01
37132;BME280;23035;50.032;21.978;2023-05-23T16:27:13;67747.63;;;24.41;43.19
37132;BME280;23035;50.032;21.978;2023-05-23T16:32:19;67795.31;;;24.85;43.06
37132;BME280;23035;50.032;21.978;2023-05-23T16:37:25;67787.13;;;24.75;42.06
37132;BME280;23035;50.032;21.978;2023-05-23T16:42:31;67743.78;;;24.35;43.04
37132;BME280;23035;50.032;21.978;2023-05-23T16:47:38;67737.22;;;24.26;43.54
37132;BME280;23035;50.032;21.978;2023-05-23T16:52:46;67715.06;;;24.08;44.10
37132;BME280;23035;50.032;21.978;2023-05-23T16:57:51;67689.56;;;23.81;45.18
37132;BME280;23035;50.032;21.978;2023-05-23T17:02:55;67659.28;;;23.55;45.90
37132;BME280;23035;50.032;21.978;2023-05-23T17:08:01;67700.97;;;23.94;44.52
37132;BME280;23035;50.032;21.978;2023-05-23T17:13:05;67683.09;;;23.78;45.65
37132;BME280;23035;50.032;21.978;2023-05-23T17:18:10;67676.72;;;23.77;44.85
37132;BME280;23035;50.032;21.978;2023-05-23T17:23:17;67695.50;;;23.87;45.60
37132;BME280;23035;50.032;21.978;2023-05-23T17:28:22;67666.38;;;23.64;46.25
37132;BME280;23035;50.032;21.978;2023-05-23T17:33:26;67721.63;;;24.16;45.73
37132;BME280;23035;50.032;21.978;2023-05-23T17:38:32;67749.16;;;24.37;46.03
37132;BME280;23035;50.032;21.978;2023-05-23T17:43:36;67695.63;;;23.92;51.49
37132;BME280;23035;50.032;21.978;2023-05-23T17:48:40;67461.78;;;21.72;72.61
37132;BME280;23035;50.032;21.978;2023-05-23T17:53:51;67366.00;;;20.77;99.69
37132;BME280;23035;50.032;21.978;2023-05-23T17:58:55;67252.00;;;19.69;100.00
37132;BME280;23035;50.032;21.978;2023-05-23T18:03:59;67205.59;;;19.28;100.00
37132;BME280;23035;50.032;21.978;2023-05-23T18:09:05;67295.72;;;20.11;100.00
37132;BME280;23035;50.032;21.978;2023-05-23T18:14:11;67320.66;;;20.37;100.00
37132;BME280;23035;50.032;21.978;2023-05-23T18:19:15;67325.94;;;20.37;100.00
37132;BME280;23035;50.032;21.978;2023-05-23T18:24:20;67245.63;;;19.68;100.00
37132;BME280;23035;50.032;21.978;2023-05-23T18:29:24;67286.53;;;20.02;100.00
37132;BME280;23035;50.032;21.978;2023-05-23T18:34:28;67299.50;;;20.14;100.00
37132;BME280;23035;50.032;21.978;2023-05-23T18:39:34;67317.34;;;20.31;100.00
37132;BME280;23035;50.032;21.978;2023-05-23T18:44:38;67354.66;;;20.66;100.00
37132;BME280;23035;50.032;21.978;2023-05-23T18:49:42;67312.06;;;20.31;100.00
37132;BME280;23035;50.032;21.978;2023-05-23T18:54:49;67261.22;;;19.81;100.00
37132;BME280;23035;50.032;21.978;2023-05-23T18:59:55;67293.09;;;20.11;100.00
37132;BME280;23035;50.032;21.978;2023-05-23T19:04:59;67301.25;;;20.21;100.00
37132;BME280;23035;50.032;21.978;2023-05-23T19:10:05;67278.97;;;19.95;100.00
37132;BME280;23035;50.032;21.978;2023-05-23T19:15:10;67268.25;;;19.87;100.00
37132;BME280;23035;50.032;21.978;2023-05-23T19:20:14;67321.09;;;20.34;100.00
37132;BME280;23035;50.032;21.978;2023-05-23T19:25:21;67303.91;;;20.21;100.00
37132;BME280;23035;50.032;21.978;2023-05-23T19:30:25;67310.38;;;20.27;100.00
37132;BME280;23035;50.032;21.978;2023-05-23T19:35:29;67328.13;;;20.41;100.00
37132;BME280;23035;50.032;21.978;2023-05-23T19:40:35;67348.16;;;20.60;100.00
37132;BME280;23035;50.032;21.978;2023-05-23T19:45:39;67348.28;;;20.65;100.00
37132;BME280;23035;50.032;21.978;2023-05-23T19:50:44;67330.94;;;20.46;100.00
37132;BME280;23035;50.032;21.978;2023-05-23T19:55:50;67282.28;;;20.00;100.00
37132;BME280;23035;50.032;21.978;2023-05-23T20:00:54;67280.63;;;19.96;100.00
37132;BME280;23035;50.032;21.978;2023-05-23T20:05:58;67317.94;;;20.34;100.00
37132;BME280;23035;50.032;21.978;2023-05-23T20:11:04;67296.41;;;20.16;100.00
37132;BME280;23035;50.032;21.978;2023-05-23T20:16:08;67278.53;;;19.97;100.00
37132;BME280;23035;50.032;21.978;2023-05-23T20:21:12;67276.88;;;19.95;100.00
37132;BME280;23035;50.032;21.978;2023-05-23T20:26:18;67276.28;;;19.92;100.00
37132;BME280;23035;50.032;21.978;2023-05-23T20:31:23;67266.56;;;19.83;100.00
37132;BME280;23035;50.032;21.978;2023-05-23T20:36:27;67263.38;;;19.83;100.00
37132;BME280;23035;50.032;21.978;2023-05-23T20:41:33;67187.84;;;19.14;100.00
37132;BME280;23035;50.032;21.978;2023-05-23T20:46:39;67155.47;;;18.83;100.00
37132;BME280;23035;50.032;21.978;2023-05-23T20:51:43;67160.78;;;18.86;100.00
37132;BME280;23035;50.032;21.978;2023-05-23T20:56:49;67133.31;;;18.62;100.00
37132;BME280;23035;50.032;21.978;2023-05-23T21:01:55;67198.91;;;19.14;100.00
37132;BME280;23035;50.032;21.978;2023-05-23T21:06:59;67099.72;;;18.26;100.00
37132;BME280;23035;50.032;21.978;2023-05-23T21:12:06;67081.53;;;18.14;100.00
37132;BME280;23035;50.032;21.978;2023-05-23T21:17:13;67104.72;;;18.35;100.00
37132;BME280;23035;50.032;21.978;2023-05-23T21:22:17;67070.16;;;18.00;100.00
37132;BME280;23035;50.032;21.978;2023-05-23T21:27:26;67075.53;;;18.05;100.00
37132;BME280;23035;50.032;21.978;2023-05-23T21:32:30;67151.06;;;18.77;100.00
37132;BME280;23035;50.032;21.978;2023-05-23T21:37:35;67176.94;;;18.99;100.00
37132;BME280;23035;50.032;21.978;2023-05-23T21:42:40;67106.22;;;18.32;100.00
37132;BME280;23035;50.032;21.978;2023-05-23T21:47:44;66949.81;;;16.84;100.00
37132;BME280;23035;50.032;21.978;2023-05-23T21:52:48;67059.97;;;17.93;100.00
37132;BME280;23035;50.032;21.978;2023-05-23T21:57:54;67011.34;;;17.45;100.00
37132;BME280;23035;50.032;21.978;2023-05-23T22:02:58;66960.00;;;16.91;100.00
37132;BME280;23035;50.032;21.978;2023-05-23T22:08:04;67023.75;;;17.57;100.00
37132;BME280;23035;50.032;21.978;2023-05-23T22:13:10;67111.06;;;18.37;100.00
37132;BME280;23035;50.032;21.978;2023-05-23T22:18:15;67132.09;;;18.56;100.00
37132;BME280;23035;50.032;21.978;2023-05-23T22:23:19;67154.94;;;18.83;100.00
37132;BME280;23035;50.032;21.978;2023-05-23T22:28:25;67195.81;;;19.16;100.00
37132;BME280;23035;50.032;21.978;2023-05-23T22:33:29;67074.94;;;18.02;100.00
37132;BME280;23035;50.032;21.978;2023-05-23T22:38:33;67071.22;;;18.01;100.00
37132;BME280;23035;50.032;21.978;2023-05-23T22:43:39;67129.41;;;18.54;100.00
37132;BME280;23035;50.032;21.978;2023-05-23T22:48:43;67144.66;;;18.73;100.00
37132;BME280;23035;50.032;21.978;2023-05-23T22:53:48;67122.38;;;18.47;100.00
37132;BME280;23035;50.032;21.978;2023-05-23T22:58:53;67119.75;;;18.47;100.00
37132;BME280;23035;50.032;21.978;2023-05-23T23:03:58;67101.97;;;18.30;100.00
37132;BME280;23035;50.032;21.978;2023-05-23T23:09:02;67035.06;;;17.67;100.00
37132;BME280;23035;50.032;21.978;2023-05-23T23:14:09;67135.91;;;18.60;100.00
37132;BME280;23035;50.032;21.978;2023-05-23T23:19:14;67134.34;;;18.61;100.00
37132;BME280;23035;50.032;21.978;2023-05-23T23:24:19;67015.59;;;17.46;100.00
37132;BME280;23035;50.032;21.978;2023-05-23T23:29:25;66990.31;;;17.25;100.00
37132;BME280;23035;50.032;21.978;2023-05-23T23:34:29;66983.94;;;17.22;100.00
37132;BME280;23035;50.032;21.978;2023-05-23T23:39:33;66980.56;;;17.13;100.00
37132;BME280;23035;50.032;21.978;2023-05-23T23:44:39;66920.69;;;16.57;100.00
37132;BME280;23035;50.032;21.978;2023-05-23T23:49:43;66889.53;;;16.30;100.00
37132;BME280;23035;50.032;21.978;2023-05-23T23:54:47;66904.69;;;16.47;100.00
37132;BME280;23035;50.032;21.978;2023-05-23T23:59:52;66919.63;;;16.56;100.00
